Terminal Aerodrome Forecast
Issued by NWS

Home | Current Version | Previous Version | Text Only | Print | Product List | Glossary On
Versions: 1 2 3 4 5 6 7 8 9 10 11 12 13 14 15 16 17 18 19 20 21 22 23 24 25 26 27 28
000
FTUS43 KDLH 041728
TAFHYR
TAF
KHYR 041728Z 0418/0518 17009KT 1SM -SN BR OVC011
     FM042100 17007KT 2SM -SN OVC003
     FM042300 20006KT P6SM VCSH OVC005
     FM050300 23007KT P6SM OVC008
     FM051100 20004KT P6SM BKN010
     FM051600 15008KT P6SM BKN040=

USA.gov is the U.S. government's official web portal to all federal, state and local government web resources and services.